ADDS METAR Data INFO
IDs: Format: Raw Decoded Include TAF

Data at: 1811 UTC 19 Oct 2017

KRKP 191753Z AUTO 06011KT 10SM OVC070 27/18 A3008 RMK AO2 SLP187 T02670183 10283 20189 58002
KRKP 191653Z AUTO 07010KT 10SM BKN070 28/20 A3009 RMK AO2 SLP189 T02780200
KRKP 191553Z AUTO 07009KT 10SM SCT100 BKN120 28/21 A3009 RMK AO2 SLP191 T02830206
KRKP 191453Z AUTO 06008KT 10SM CLR 26/20 A3008 RMK AO2 SLP189 T02610200 53010
KRKP 191353Z AUTO 04006KT 8SM CLR 22/19 A3007 RMK AO2 SLP184 T02220194
KRKP 191253Z AUTO 01005KT 5SM BR BKN040 19/18 A3005 RMK AO2 SLP178 T01940183
KRKP 191153Z AUTO 01003KT 7SM CLR 19/19 A3005 RMK AO2 SLP178 T01940189 10233 20189 53001
KRKP 191053Z AUTO 00000KT 9SM CLR 20/19 A3005 RMK AO2 SLP178 T02000194
KRKP 190953Z AUTO 00000KT 10SM CLR 20/19 A3004 RMK AO2 SLP172 T02000189
KRKP 190853Z AUTO 15003KT 10SM CLR 21/20 A3005 RMK AO2 SLP177 T02110200 58010
KRKP 190753Z AUTO 16004KT 10SM FEW033 22/19 A3007 RMK AO2 SLP183 T02220194
KRKP 190653Z AUTO 13004KT 10SM CLR 23/20 A3007 RMK AO2 SLP185 T02280200
KRKP 190553Z AUTO 11008KT 10SM CLR 23/19 A3008 RMK AO2 SLP187 T02330194 10233 20228 402670122 58003
KRKP 190453Z AUTO 11008KT 10SM FEW030 23/19 A3009 RMK AO2 SLP191 T02330194
KRKP 190353Z AUTO 11007KT 10SM CLR 23/19 A3009 RMK AO2 SLP190 T02280189
KRKP 190253Z AUTO 11008KT 10SM CLR 23/19 A3009 RMK AO2 SLP190 T02280189 53008
KRKP 190153Z AUTO 11006KT 10SM CLR 23/19 A3009 RMK AO2 SLP189 T02280189
KRKP 190053Z AUTO 11008KT 10SM CLR 23/18 A3006 RMK AO2 SLP182 T02280178
KRKP 182353Z AUTO 11007KT 10SM CLR 23/18 A3006 RMK AO2 SLP182 T02280178 10267 20228 56007
KRKP 182253Z AUTO 10006KT 8SM CLR 25/18 A3007 RMK AO2 SLP184 T02500183
KRKP 182153Z AUTO 11007KT 6SM HZ CLR 26/18 A3007 RMK AO2 SLP184 T02560178
KRKP 182053Z AUTO 11009KT 5SM HZ CLR 26/17 A3008 RMK AO2 SLP188 T02610172 56022
KRKP 181953Z AUTO 10007KT 6SM HZ CLR 26/17 A3009 RMK AO2 SLP190 T02610167
KRKP 181853Z AUTO 09005KT 7SM CLR 26/17 A3011 RMK AO2 SLP197 T02610167
KRKP 181753Z AUTO 07005KT 7SM CLR 26/16 A3015 RMK AO2 SLP210 T02560161 10261 20144 58006
KRKP 181653Z AUTO 08005KT 5SM HZ CLR 26/16 A3017 RMK AO2 SLP216 T02560161
KRKP 181553Z AUTO 04008KT 5SM HZ CLR 24/15 A3017 RMK AO2 SLP218 T02390150
KRKP 181453Z AUTO 04008KT 5SM HZ CLR 22/14 A3017 RMK AO2 SLP217 T02220144 53015
KRKP 181411Z AUTO 04005KT 3SM HZ CLR 21/16 A3015 RMK AO2 T02060161
KRKP 181401Z AUTO 03004KT 2 1/2SM HZ CLR 19/16 A3015 RMK AO2 T01940161
KRKP 181353Z AUTO 03004KT 2SM HZ CLR 19/16 A3015 RMK AO2 SLP209 T01890161
KRKP 181253Z AUTO 02003KT 1 1/4SM BR CLR 16/14 A3013 RMK AO2 SLP205 T01560144
KRKP 181239Z AUTO 03003KT 1SM BR CLR 15/14 A3013 RMK AO2 T01500144
KRKP 181153Z AUTO 00000KT 1 1/2SM BR CLR 14/14 A3012 RMK AO2 SLP201 T01440139 10161 20122 53000
KRKP 181129Z AUTO 03003KT 1 3/4SM BR CLR 14/14 A3012 RMK AO2 T01440139
KRKP 181122Z AUTO 00000KT 2SM BR CLR 13/13 A3013 RMK AO2 T01330133
KRKP 181115Z AUTO 00000KT 2 1/2SM BR CLR 14/14 A3013 RMK AO2 T01390139
KRKP 181053Z AUTO 01004KT 5SM BR CLR 15/14 A3012 RMK AO2 SLP201 T01500139
KRKP 180953Z AUTO 00000KT 9SM CLR 15/15 A3012 RMK AO2 SLP200 T01500150
KRKP 180853Z AUTO 34004KT 9SM CLR 16/16 A3012 RMK AO2 SLP201 T01560156 58009
KRKP 180753Z AUTO 33003KT 10SM CLR 14/13 A3014 RMK AO2 SLP206 T01390128
KRKP 180653Z AUTO 00000KT 10SM CLR 14/13 A3014 RMK AO2 SLP208 T01390133